Time;durP1;ratioP1;P1;durP2;ratioP2;P2;SDS_P1;SDS_P2;PMS_P1;PMS_P2;Temp;Humidity;BMP_temperature;BMP_pressure;BME280_temperature;BME280_humidity;BME280_pressure;Samples;Min_cycle;Max_cycle;Signal;HPM_P1;HPM_P2
2022/03/16 00:00:19;;;;;;;33.83;25.60;;;5.70;1.00;6.10;101337.00;;;;4988419;28;20573;-75
2022/03/16 00:02:49;;;;;;;33.07;23.60;;;5.70;1.00;6.10;101348.00;;;;4998641;28;20454;-75
2022/03/16 00:05:18;;;;;;;37.63;25.87;;;5.70;1.00;6.00;101335.00;;;;4982964;28;20451;-76
2022/03/16 00:07:46;;;;;;;32.87;23.03;;;5.60;1.00;5.90;101312.00;;;;4997603;28;20481;-77
2022/03/16 00:10:15;;;;;;;30.63;21.93;;;5.60;1.00;5.90;101306.00;;;;4982068;28;21034;-76
2022/03/16 00:12:45;;;;;;;35.73;23.87;;;5.50;1.00;5.90;101339.00;;;;4980982;28;20998;-77
2022/03/16 00:15:13;;;;;;;32.67;23.90;;;5.50;1.00;5.90;101338.00;;;;4984026;28;20465;-76
2022/03/16 00:17:42;;;;;;;29.03;23.07;;;5.50;1.00;5.80;101341.00;;;;4982690;28;20505;-76
2022/03/16 00:20:12;;;;;;;26.57;22.50;;;5.60;1.00;5.70;101323.00;;;;4982413;28;20474;-76
2022/03/16 00:22:41;;;;;;;29.87;22.90;;;5.40;1.00;5.70;101337.00;;;;4983522;28;20455;-76
2022/03/16 00:25:10;;;;;;;33.03;23.00;;;5.40;1.00;5.70;101341.00;;;;4982891;28;20541;-77
2022/03/16 00:27:39;;;;;;;32.77;25.23;;;5.30;1.00;5.70;101335.00;;;;4981847;28;20482;-77
2022/03/16 00:30:11;;;;;;;34.70;23.50;;;5.50;1.00;5.70;101329.00;;;;4981231;28;20573;-76
2022/03/16 00:32:39;;;;;;;34.83;24.37;;;5.30;1.00;5.70;101329.00;;;;4983359;28;20458;-76
2022/03/16 00:35:08;;;;;;;32.53;22.67;;;5.30;1.00;5.70;101344.00;;;;4981363;28;20482;-76
2022/03/16 00:37:36;;;;;;;32.57;23.57;;;5.30;1.00;5.70;101345.00;;;;4980393;28;20492;-78
2022/03/16 00:40:09;;;;;;;34.43;24.30;;;5.30;1.00;5.70;101306.00;;;;4983136;28;20480;-77
2022/03/16 00:42:38;;;;;;;30.57;23.17;;;5.20;1.00;5.60;101335.00;;;;4981343;28;20470;-76
2022/03/16 00:45:09;;;;;;;37.70;28.43;;;5.20;1.00;5.60;101333.00;;;;4983860;28;20802;-79
2022/03/16 00:47:37;;;;;;;40.10;26.37;;;5.20;1.00;5.60;101357.00;;;;4985630;28;20486;-77
2022/03/16 00:50:08;;;;;;;45.87;30.70;;;5.50;1.00;5.70;101340.00;;;;4985155;28;20465;-78
2022/03/16 00:52:36;;;;;;;45.70;30.20;;;5.30;1.00;5.90;101365.00;;;;5011438;28;20501;-78
2022/03/16 00:55:05;;;;;;;43.07;29.73;;;5.30;1.00;5.70;101368.00;;;;5021312;28;20467;-77
2022/03/16 00:57:33;;;;;;;47.97;32.00;;;5.30;1.00;5.60;101339.00;;;;5006723;28;20484;-78
2022/03/16 01:00:03;;;;;;;42.73;30.03;;;5.20;1.00;5.60;101360.00;;;;5016272;28;20817;-78
2022/03/16 01:02:32;;;;;;;47.40;31.60;;;5.20;1.00;5.60;101356.00;;;;4992582;28;21003;-77
2022/03/16 01:05:01;;;;;;;49.73;33.70;;;5.20;1.00;5.60;101349.00;;;;5002672;28;20462;-78
2022/03/16 01:07:29;;;;;;;41.37;27.20;;;5.40;1.00;5.50;101366.00;;;;4989505;28;20480;-77
2022/03/16 01:09:58;;;;;;;46.07;30.27;;;5.10;1.00;5.50;101346.00;;;;4986616;28;20462;-77
2022/03/16 01:12:26;;;;;;;50.50;33.33;;;5.10;1.00;5.50;101361.00;;;;4989417;28;20454;-76
2022/03/16 01:14:54;;;;;;;31.60;22.73;;;5.10;1.00;5.50;101346.00;;;;4987804;28;20481;-76
2022/03/16 01:17:24;;;;;;;58.53;34.43;;;5.10;1.00;5.40;101331.00;;;;4984038;28;20592;-76
2022/03/16 01:19:54;;;;;;;53.40;35.47;;;5.00;1.00;5.40;101350.00;;;;4984840;28;20467;-75
2022/03/16 01:22:23;;;;;;;63.40;39.83;;;5.00;1.00;5.40;101348.00;;;;4983989;28;20829;-76
2022/03/16 01:24:52;;;;;;;88.57;43.60;;;5.00;1.00;5.40;101333.00;;;;4989092;28;20466;-77
2022/03/16 01:27:20;;;;;;;113.37;46.53;;;5.00;1.00;5.50;101350.00;;;;4986660;28;20513;-78
2022/03/16 01:29:49;;;;;;;384.20;70.07;;;5.30;1.00;5.60;101350.00;;;;4987226;28;20446;-77
2022/03/16 01:32:17;;;;;;;600.40;85.43;;;5.20;1.00;5.70;101335.00;;;;4987566;28;20450;-78
2022/03/16 01:34:46;;;;;;;980.67;115.10;;;5.30;1.00;5.70;101357.00;;;;4987094;28;20580;-77
2022/03/16 01:37:16;;;;;;;514.60;82.00;;;5.40;1.00;5.70;101342.00;;;;4987122;28;20498;-78
2022/03/16 01:39:44;;;;;;;992.27;118.07;;;5.40;1.00;5.70;101351.00;;;;4983358;28;20478;-76
2022/03/16 01:42:14;;;;;;;578.20;83.23;;;5.30;1.00;5.70;101345.00;;;;4972184;28;20463;-77
2022/03/16 01:44:45;;;;;;;1014.90;118.40;;;5.30;1.00;5.80;101361.00;;;;4975453;28;20470;-77
2022/03/16 01:47:14;;;;;;;831.90;98.70;;;5.40;1.00;5.80;101377.00;;;;4989862;28;20478;-78
2022/03/16 01:49:44;;;;;;;836.60;103.77;;;5.50;1.00;5.90;101372.00;;;;4983942;28;20478;-77
2022/03/16 01:52:19;;;;;;;419.33;73.70;;;5.60;1.00;5.80;101362.00;;;;4985329;28;20465;-78
2022/03/16 01:54:48;;;;;;;878.73;105.00;;;5.50;1.00;5.80;101378.00;;;;4987211;28;20909;-77
2022/03/16 01:57:16;;;;;;;541.90;80.77;;;5.50;1.00;5.90;101366.00;;;;4986504;28;20490;-77
2022/03/16 01:59:45;;;;;;;815.37;104.90;;;5.50;1.00;5.90;101378.00;;;;4985567;28;21150;-76
2022/03/16 02:02:16;;;;;;;438.10;73.93;;;5.60;1.00;6.00;101361.00;;;;4991791;28;20701;-76
2022/03/16 02:04:45;;;;;;;486.63;82.47;;;5.70;1.00;6.10;101381.00;;;;5004188;28;20466;-78
2022/03/16 02:07:13;;;;;;;788.33;102.93;;;5.70;1.00;6.10;101365.00;;;;4993412;28;20474;-77
2022/03/16 02:09:43;;;;;;;827.43;100.60;;;5.80;1.00;6.10;101362.00;;;;5003907;28;20455;-78
2022/03/16 02:12:13;;;;;;;669.50;94.73;;;6.00;1.00;6.00;101356.00;;;;5025648;28;20555;-77
2022/03/16 02:14:41;;;;;;;503.57;75.87;;;5.70;1.00;5.90;101367.00;;;;5014014;28;20481;-76
2022/03/16 02:17:09;;;;;;;436.27;73.20;;;5.60;1.00;5.90;101371.00;;;;5016636;28;20641;-78
2022/03/16 02:19:38;;;;;;;913.00;108.07;;;5.60;1.00;5.80;101372.00;;;;5023062;28;20455;-76
2022/03/16 02:22:11;;;;;;;660.93;88.00;;;5.50;1.00;5.80;101383.00;;;;5003398;28;20450;-76
2022/03/16 02:24:41;;;;;;;745.00;97.40;;;5.50;1.00;5.80;101349.00;;;;4987303;28;20469;-76
2022/03/16 02:27:09;;;;;;;728.17;96.73;;;5.50;1.00;5.90;101387.00;;;;4986577;28;20837;-75
2022/03/16 02:29:37;;;;;;;810.73;100.80;;;5.50;1.00;6.00;101388.00;;;;4985976;28;20454;-75
2022/03/16 02:32:07;;;;;;;531.97;81.00;;;5.60;1.00;6.00;101380.00;;;;5000509;28;20474;-77
2022/03/16 02:34:35;;;;;;;778.27;97.87;;;5.60;1.00;5.90;101359.00;;;;4992176;28;20487;-74
2022/03/16 02:37:04;;;;;;;370.23;68.87;;;5.80;1.00;6.00;101398.00;;;;5009602;28;20466;-76
2022/03/16 02:39:33;;;;;;;771.20;98.33;;;5.60;1.00;6.00;101384.00;;;;5017685;28;20467;-76
2022/03/16 02:42:03;;;;;;;598.87;83.80;;;5.70;1.00;6.00;101374.00;;;;5008190;28;20844;-75
2022/03/16 02:44:31;;;;;;;809.53;98.70;;;5.60;1.00;5.90;101384.00;;;;4999230;28;21535;-74
2022/03/16 02:47:00;;;;;;;332.13;57.30;;;5.60;1.00;5.90;101385.00;;;;5004041;28;20517;-76
2022/03/16 02:49:31;;;;;;;573.27;77.60;;;5.60;1.00;5.80;101394.00;;;;5001326;28;20463;-76
2022/03/16 02:51:59;;;;;;;516.47;71.53;;;5.50;1.00;5.80;101374.00;;;;4985871;28;20467;-77
2022/03/16 02:54:27;;;;;;;558.03;79.63;;;5.50;1.00;5.80;101393.00;;;;4984483;28;21000;-76
2022/03/16 02:56:56;;;;;;;572.30;76.83;;;5.50;1.00;5.70;101400.00;;;;4983080;28;20498;-76
2022/03/16 02:59:25;;;;;;;739.80;91.13;;;5.40;1.00;5.70;101395.00;;;;4985394;28;20467;-75
2022/03/16 03:01:54;;;;;;;460.30;71.30;;;5.40;1.00;5.80;101383.00;;;;4998039;28;20455;-76
2022/03/16 03:04:22;;;;;;;578.90;79.83;;;5.40;1.00;5.80;101396.00;;;;4983966;28;20454;-76
2022/03/16 03:06:51;;;;;;;411.00;67.10;;;5.50;1.00;5.90;101398.00;;;;4983462;28;20505;-77
2022/03/16 03:09:20;;;;;;;284.70;57.27;;;5.50;1.00;5.80;101415.00;;;;4983982;28;20455;-77
2022/03/16 03:11:48;;;;;;;625.00;82.53;;;5.50;1.00;5.80;101419.00;;;;4986538;28;20459;-77
2022/03/16 03:14:16;;;;;;;793.60;95.50;;;5.50;1.00;5.90;101427.00;;;;4985729;28;20465;-77
2022/03/16 03:16:47;;;;;;;377.87;61.47;;;5.60;1.00;5.90;101426.00;;;;4992956;28;20991;-77
2022/03/16 03:19:22;;;;;;;787.33;91.20;;;5.60;1.00;5.80;101413.00;;;;4987022;28;20450;-77
2022/03/16 03:21:50;;;;;;;598.40;72.47;;;5.60;1.00;5.80;101408.00;;;;4989906;28;20859;-76
2022/03/16 03:24:19;;;;;;;571.13;80.73;;;5.50;1.00;5.80;101406.00;;;;4989193;28;20482;-77
2022/03/16 03:26:47;;;;;;;262.60;57.70;;;5.50;1.00;5.80;101423.00;;;;4989007;28;20489;-77
2022/03/16 03:29:16;;;;;;;303.87;60.07;;;5.50;1.00;5.70;101424.00;;;;4988018;28;21189;-76
2022/03/16 03:31:46;;;;;;;990.53;108.53;;;5.40;1.00;5.70;101416.00;;;;4983812;28;20469;-76
2022/03/16 03:34:14;;;;;;;181.70;49.57;;;5.40;1.00;5.80;101436.00;;;;4984953;28;20477;-76
2022/03/16 03:36:43;;;;;;;221.47;51.67;;;5.40;1.00;5.70;101420.00;;;;4985357;28;20493;-76
2022/03/16 03:39:11;;;;;;;263.77;54.80;;;5.40;1.00;5.60;101428.00;;;;4984695;28;20454;-77
2022/03/16 03:42:55;;;;;;;381.40;62.67;;;5.40;1.00;5.60;101438.00;;;;5115404;27;20659;-77
2022/03/16 03:45:23;;;;;;;691.27;88.00;;;5.30;1.00;5.60;101425.00;;;;5106095;28;20539;-77
2022/03/16 03:47:52;;;;;;;459.33;69.93;;;5.30;1.00;5.60;101419.00;;;;5096812;28;20489;-77
2022/03/16 03:50:20;;;;;;;413.80;66.03;;;5.30;1.00;5.60;101424.00;;;;5107586;28;20457;-77
2022/03/16 03:52:49;;;;;;;741.50;84.33;;;5.30;1.00;5.50;101417.00;;;;5105467;28;20460;-76
2022/03/16 03:55:17;;;;;;;367.07;61.33;;;5.20;1.00;5.60;101398.00;;;;5105532;28;20984;-77
2022/03/16 03:57:45;;;;;;;479.93;63.60;;;5.30;1.00;5.50;101428.00;;;;5120415;27;20477;-77
2022/03/16 04:00:16;;;;;;;155.03;45.80;;;5.30;1.00;5.60;101431.00;;;;5101850;28;20449;-76
2022/03/16 04:02:49;;;;;;;745.23;82.97;;;5.30;1.00;5.70;101432.00;;;;5103540;28;21189;-76
2022/03/16 04:05:19;;;;;;;891.40;95.37;;;5.40;1.00;5.70;101443.00;;;;5098743;28;20488;-75
2022/03/16 04:07:48;;;;;;;575.53;72.97;;;5.40;1.00;5.80;101462.00;;;;5098274;28;20471;-77
2022/03/16 04:10:17;;;;;;;258.30;53.67;;;5.50;1.00;5.70;101434.00;;;;5098871;28;20446;-76
2022/03/16 04:12:45;;;;;;;775.17;83.67;;;5.50;1.00;5.70;101416.00;;;;5098739;28;20461;-77
2022/03/16 04:15:15;;;;;;;689.20;78.33;;;5.60;1.00;5.80;101434.00;;;;5091789;28;20453;-78
2022/03/16 04:17:43;;;;;;;383.47;59.67;;;5.50;1.00;5.80;101439.00;;;;5095243;28;20480;-77
2022/03/16 04:20:12;;;;;;;448.87;63.20;;;5.50;1.00;5.80;101454.00;;;;5095895;28;20461;-77
2022/03/16 04:22:41;;;;;;;463.23;61.73;;;5.50;1.00;5.80;101439.00;;;;5099693;28;20468;-78
2022/03/16 04:25:10;;;;;;;121.67;42.07;;;5.50;1.00;5.80;101452.00;;;;5099292;28;20445;-78
2022/03/16 04:27:38;;;;;;;557.60;70.60;;;5.50;1.00;5.90;101463.00;;;;5099438;28;20483;-78
2022/03/16 04:30:08;;;;;;;800.57;93.37;;;5.60;1.00;5.90;101446.00;;;;5091907;28;20468;-76
2022/03/16 04:32:38;;;;;;;562.73;70.73;;;5.70;1.00;6.00;101461.00;;;;5095472;28;20445;-75
2022/03/16 04:35:07;;;;;;;595.17;70.63;;;5.60;1.00;5.90;101464.00;;;;5096422;28;20454;-75
2022/03/16 04:37:36;;;;;;;355.03;60.30;;;5.70;1.00;5.90;101457.00;;;;5095256;28;20496;-76
2022/03/16 04:40:05;;;;;;;486.17;64.80;;;5.70;1.00;5.90;101453.00;;;;5096044;28;20513;-75
2022/03/16 04:42:34;;;;;;;246.57;50.07;;;5.70;1.00;5.80;101451.00;;;;5095916;28;20516;-76
2022/03/16 04:45:02;;;;;;;459.07;67.57;;;5.60;1.00;5.80;101454.00;;;;5094697;28;20465;-76
2022/03/16 04:47:31;;;;;;;289.17;52.00;;;5.60;1.00;5.90;101462.00;;;;5087692;28;20483;-75
2022/03/16 04:50:01;;;;;;;339.10;59.33;;;5.60;1.00;6.00;101454.00;;;;5110943;28;20459;-77
2022/03/16 04:52:31;;;;;;;485.97;61.63;;;5.70;1.00;6.10;101459.00;;;;5136359;28;20451;-77
2022/03/16 04:54:59;;;;;;;263.03;51.13;;;5.80;1.00;6.10;101459.00;;;;5102575;28;20472;-77
2022/03/16 04:57:27;;;;;;;250.83;51.27;;;5.80;1.00;6.10;101458.00;;;;5116365;28;20490;-77
2022/03/16 04:59:55;;;;;;;443.27;59.93;;;5.80;1.00;6.20;101466.00;;;;5113775;28;20470;-76
2022/03/16 05:02:23;;;;;;;353.17;52.17;;;5.90;1.00;6.10;101455.00;;;;5089191;28;20470;-76
2022/03/16 05:04:52;;;;;;;548.53;61.70;;;5.90;1.00;6.00;101446.00;;;;5083984;28;20446;-75
2022/03/16 05:07:22;;;;;;;393.67;55.90;;;5.80;1.00;5.90;101456.00;;;;5083821;28;20469;-76
2022/03/16 05:09:50;;;;;;;196.93;46.30;;;5.70;1.00;5.80;101449.00;;;;5080813;28;20458;-77
2022/03/16 05:12:18;;;;;;;280.37;53.10;;;5.60;1.00;5.70;101462.00;;;;5081959;28;20462;-76
2022/03/16 05:14:47;;;;;;;773.43;81.23;;;5.50;1.00;5.70;101455.00;;;;5081773;28;20446;-75
2022/03/16 05:17:15;;;;;;;513.10;64.67;;;5.50;1.00;5.70;101445.00;;;;5080109;28;20466;-75
2022/03/16 05:19:48;;;;;;;255.47;50.20;;;5.80;1.00;5.70;101473.00;;;;5080116;28;20463;-75
2022/03/16 05:22:17;;;;;;;528.80;67.63;;;5.50;1.00;5.70;101458.00;;;;5083306;28;20466;-75
2022/03/16 05:24:46;;;;;;;425.93;61.40;;;5.50;1.00;5.80;101458.00;;;;5078548;28;20439;-76
2022/03/16 05:27:15;;;;;;;487.47;60.90;;;5.50;1.00;5.80;101474.00;;;;5074690;28;20535;-76
2022/03/16 05:29:43;;;;;;;747.07;72.90;;;5.60;1.00;5.90;101468.00;;;;5078330;28;20457;-77
2022/03/16 05:32:11;;;;;;;391.00;60.43;;;5.60;1.00;6.00;101474.00;;;;5083519;28;20443;-76
2022/03/16 05:34:40;;;;;;;481.23;62.57;;;5.80;1.00;6.00;101472.00;;;;5083761;28;20454;-75
2022/03/16 05:37:08;;;;;;;411.83;60.07;;;5.70;1.00;6.00;101479.00;;;;5083842;28;20462;-76
2022/03/16 05:39:36;;;;;;;766.00;79.67;;;5.70;1.00;6.00;101477.00;;;;5081197;28;20449;-76
2022/03/16 05:42:08;;;;;;;487.47;61.17;;;5.70;1.00;5.90;101463.00;;;;5082576;28;20482;-77
2022/03/16 05:44:36;;;;;;;234.17;47.40;;;5.70;1.00;5.80;101477.00;;;;5081546;28;20620;-75
2022/03/16 05:47:06;;;;;;;301.30;53.00;;;5.60;1.00;5.70;101467.00;;;;5080548;28;20656;-76
2022/03/16 05:49:34;;;;;;;351.57;55.13;;;5.50;1.00;5.70;101486.00;;;;5078589;28;20459;-76
2022/03/16 05:52:03;;;;;;;306.47;51.97;;;5.50;1.00;5.70;101474.00;;;;5070707;28;20461;-76
2022/03/16 05:54:31;;;;;;;427.80;60.73;;;5.50;1.00;5.60;101477.00;;;;5079900;28;20805;-76
2022/03/16 05:57:00;;;;;;;393.90;56.57;;;5.40;1.00;5.70;101460.00;;;;5080891;28;20565;-76
2022/03/16 05:59:35;;;;;;;356.97;57.60;;;5.50;1.00;5.80;101485.00;;;;5080001;28;20465;-76
2022/03/16 06:02:04;;;;;;;516.77;66.90;;;5.50;1.00;5.70;101482.00;;;;5079657;28;20560;-77
2022/03/16 06:04:32;;;;;;;324.87;55.60;;;5.50;1.00;5.70;101496.00;;;;5080227;28;20458;-76
2022/03/16 06:07:01;;;;;;;641.97;75.33;;;5.50;1.00;5.80;101499.00;;;;5081338;28;20568;-76
2022/03/16 06:09:29;;;;;;;435.40;57.70;;;5.50;1.00;5.90;101492.00;;;;5081395;28;20993;-77
2022/03/16 06:11:59;;;;;;;373.67;55.97;;;5.60;1.00;5.90;101498.00;;;;5081911;28;21694;-76
2022/03/16 06:14:27;;;;;;;587.13;71.27;;;5.70;1.00;6.00;101492.00;;;;5080734;28;20468;-76
2022/03/16 06:17:01;;;;;;;333.80;51.93;;;5.70;1.00;5.90;101508.00;;;;5082447;28;21709;-76
2022/03/16 06:19:29;;;;;;;253.67;48.70;;;5.70;1.00;5.70;101501.00;;;;5080577;28;20454;-76
2022/03/16 06:21:58;;;;;;;475.60;60.13;;;5.50;1.00;5.70;101492.00;;;;5097798;28;20486;-77
2022/03/16 06:24:26;;;;;;;237.10;45.10;;;5.50;1.00;5.70;101517.00;;;;5080471;28;20490;-76
2022/03/16 06:26:55;;;;;;;392.33;58.70;;;5.50;1.00;5.60;101504.00;;;;5081599;28;20549;-76
2022/03/16 06:29:23;;;;;;;146.97;44.17;;;5.40;1.00;5.60;101501.00;;;;5080273;28;20462;-76
2022/03/16 06:31:52;;;;;;;188.27;47.50;;;5.40;1.00;5.70;101516.00;;;;5081527;28;20473;-77
2022/03/16 06:34:22;;;;;;;172.40;44.43;;;5.40;1.00;5.80;101516.00;;;;5082178;28;20473;-77
2022/03/16 06:36:50;;;;;;;128.47;40.27;;;5.50;1.00;5.60;101514.00;;;;5082048;28;20473;-76
2022/03/16 06:39:19;;;;;;;203.70;44.30;;;5.50;1.00;5.80;101530.00;;;;5098890;28;20454;-77
2022/03/16 06:41:47;;;;;;;154.87;43.33;;;5.50;1.00;5.70;101522.00;;;;5083499;28;20959;-76
2022/03/16 06:44:15;;;;;;;124.00;39.53;;;5.40;1.00;5.60;101529.00;;;;5079978;28;20473;-77
2022/03/16 06:46:43;;;;;;;123.30;38.40;;;5.40;1.00;5.50;101531.00;;;;5080366;28;21410;-76
2022/03/16 06:49:12;;;;;;;132.70;41.53;;;5.30;1.00;5.50;101531.00;;;;5075034;28;20472;-77
2022/03/16 06:51:42;;;;;;;93.50;36.90;;;5.20;1.00;5.60;101551.00;;;;5082565;28;20455;-76
2022/03/16 06:54:10;;;;;;;104.50;38.87;;;5.30;1.00;5.80;101527.00;;;;5081427;28;20472;-76
2022/03/16 06:56:39;;;;;;;73.43;32.97;;;5.40;1.00;5.80;101535.00;;;;5093081;28;20459;-76
2022/03/16 06:59:07;;;;;;;99.60;37.73;;;5.50;1.00;5.80;101532.00;;;;5105813;28;21286;-75
2022/03/16 07:01:35;;;;;;;111.13;38.10;;;5.50;1.00;5.80;101523.00;;;;5107848;28;20503;-76
2022/03/16 07:04:04;;;;;;;106.83;37.10;;;5.50;1.00;6.00;101504.00;;;;5109176;28;20541;-76
2022/03/16 07:06:33;;;;;;;125.37;41.10;;;5.60;1.00;6.10;101533.00;;;;5092776;28;20969;-76
2022/03/16 07:09:03;;;;;;;112.27;39.10;;;5.70;1.00;6.10;101527.00;;;;5084842;28;20454;-75
2022/03/16 07:11:31;;;;;;;108.07;37.93;;;5.80;1.00;6.20;101536.00;;;;5086034;28;20446;-75
2022/03/16 07:16:45;;;;;;;83.07;34.63;;;5.90;1.00;6.10;101535.00;;;;5085817;28;20829;-75
2022/03/16 07:19:14;;;;;;;66.60;30.43;;;5.90;1.00;6.20;101534.00;;;;5085878;28;20442;-76
2022/03/16 07:21:43;;;;;;;62.60;30.80;;;5.90;1.00;6.40;101537.00;;;;5083999;28;20448;-76
2022/03/16 07:24:13;;;;;;;69.23;30.10;;;5.90;1.00;6.30;101524.00;;;;5084959;28;20484;-76
2022/03/16 07:26:42;;;;;;;71.27;31.80;;;6.00;1.00;6.30;101516.00;;;;5093424;28;20456;-77
2022/03/16 07:29:11;;;;;;;82.33;34.50;;;6.00;1.00;6.50;101510.00;;;;5103879;28;20508;-75
2022/03/16 07:31:39;;;;;;;72.73;32.97;;;6.10;1.00;6.50;101485.00;;;;5097528;28;20460;-75
2022/03/16 07:34:07;;;;;;;70.03;33.33;;;6.20;1.00;6.40;101515.00;;;;5109325;28;21679;-75
2022/03/16 07:36:36;;;;;;;88.73;36.17;;;6.10;1.00;6.50;101528.00;;;;5106307;28;21286;-76
2022/03/16 07:39:04;;;;;;;56.53;30.13;;;6.20;1.00;6.70;101524.00;;;;5089387;28;21402;-76
2022/03/16 07:41:34;;;;;;;101.20;34.73;;;6.30;1.00;6.70;101526.00;;;;5085624;28;20461;-76
2022/03/16 07:44:02;;;;;;;84.50;34.23;;;6.30;1.00;6.80;101526.00;;;;5083052;28;20477;-76
2022/03/16 07:46:30;;;;;;;71.23;32.07;;;6.50;1.00;6.70;101527.00;;;;5081627;28;20445;-75
2022/03/16 07:48:59;;;;;;;63.07;29.90;;;6.40;1.00;6.60;101525.00;;;;5081480;28;20450;-76
2022/03/16 07:51:27;;;;;;;49.27;28.57;;;6.30;1.00;6.50;101517.00;;;;5080199;28;20463;-76
2022/03/16 07:53:55;;;;;;;63.03;29.50;;;6.20;1.00;6.60;101523.00;;;;5082910;28;20450;-76
2022/03/16 07:56:24;;;;;;;47.80;25.90;;;6.20;1.00;6.70;101518.00;;;;5083932;28;20532;-77
2022/03/16 07:58:54;;;;;;;43.53;26.57;;;6.30;1.00;6.80;101496.00;;;;5089146;28;20495;-76
2022/03/16 08:01:22;;;;;;;46.90;28.30;;;6.40;1.00;6.90;101513.00;;;;5098407;28;20434;-76
2022/03/16 08:03:51;;;;;;;44.60;25.40;;;6.50;1.00;7.20;101509.00;;;;5091799;28;20477;-75
2022/03/16 08:06:19;;;;;;;53.03;24.87;;;6.80;1.00;7.20;101530.00;;;;5100685;28;20458;-75
2022/03/16 08:08:49;;;;;;;38.23;24.43;;;6.90;1.00;7.40;101518.00;;;;5100054;28;20457;-76
2022/03/16 08:11:18;;;;;;;34.00;21.80;;;7.00;1.00;7.60;101517.00;;;;5094810;28;20529;-75
2022/03/16 08:13:46;;;;;;;31.67;22.03;;;7.20;1.00;7.50;101524.00;;;;5106337;28;20478;-75
2022/03/16 08:16:16;;;;;;;31.07;20.67;;;7.20;1.00;7.50;101514.00;;;;5106718;28;20433;-76
2022/03/16 08:18:44;;;;;;;30.23;21.77;;;7.20;1.00;7.50;101521.00;;;;5126102;28;20477;-76
2022/03/16 08:21:13;;;;;;;27.67;18.73;;;7.10;1.00;7.40;101501.00;;;;5087684;28;20536;-75
2022/03/16 08:23:41;;;;;;;29.40;21.20;;;7.10;1.00;7.60;101527.00;;;;5089922;28;20574;-77
2022/03/16 08:26:10;;;;;;;26.90;19.40;;;7.20;1.00;7.40;101507.00;;;;5087744;28;20470;-77
2022/03/16 08:28:39;;;;;;;29.80;19.90;;;7.10;1.00;7.40;101525.00;;;;5109695;28;20537;-78
2022/03/16 08:31:08;;;;;;;24.20;18.57;;;7.10;1.00;7.60;101535.00;;;;5098526;28;20527;-78
2022/03/16 08:33:38;;;;;;;24.77;19.23;;;7.30;1.00;7.70;101539.00;;;;5085072;28;20455;-78
2022/03/16 08:36:07;;;;;;;23.40;19.13;;;7.30;1.00;7.60;101531.00;;;;5101654;28;20979;-77
2022/03/16 08:38:37;;;;;;;20.13;17.80;;;7.30;1.00;7.90;101555.00;;;;5076211;28;21355;-77
2022/03/16 08:41:07;;;;;;;21.50;18.17;;;7.50;1.00;8.10;101556.00;;;;5083385;28;20556;-77
2022/03/16 08:43:35;;;;;;;18.10;15.40;;;7.80;1.00;8.40;101565.00;;;;5086243;28;20528;-77
2022/03/16 08:46:04;;;;;;;20.17;16.30;;;8.10;1.00;8.30;101538.00;;;;5080430;28;20454;-77
2022/03/16 08:48:32;;;;;;;19.40;15.13;;;8.00;1.00;8.20;101566.00;;;;5080674;28;20567;-76
2022/03/16 08:51:03;;;;;;;19.60;15.47;;;8.00;1.00;8.40;101562.00;;;;5085575;28;20820;-78
2022/03/16 08:53:31;;;;;;;18.10;15.50;;;8.10;1.00;8.30;101568.00;;;;5081487;28;20481;-78
2022/03/16 08:56:00;;;;;;;22.53;17.17;;;8.00;1.00;8.30;101552.00;;;;5083703;28;20457;-77
2022/03/16 08:58:28;;;;;;;22.43;17.43;;;8.00;1.00;8.40;101554.00;;;;5079943;28;20528;-77
2022/03/16 09:00:56;;;;;;;20.37;16.57;;;8.00;1.00;8.40;101556.00;;;;5081874;28;20465;-77
2022/03/16 09:03:25;;;;;;;26.50;18.60;;;8.10;1.00;8.50;101543.00;;;;5069765;28;20449;-77
2022/03/16 09:05:54;;;;;;;25.43;20.37;;;8.20;1.00;8.80;101546.00;;;;5080180;28;20464;-77
2022/03/16 09:08:23;;;;;;;23.63;17.67;;;8.40;1.00;8.80;101541.00;;;;5081402;28;20597;-76
2022/03/16 09:10:53;;;;;;;26.77;18.57;;;8.40;1.00;9.00;101520.00;;;;5081741;28;20453;-76
2022/03/16 09:13:22;;;;;;;24.30;20.30;;;8.70;1.00;9.10;101548.00;;;;5078477;28;20464;-76
2022/03/16 09:15:51;;;;;;;28.63;19.90;;;8.80;1.00;9.40;101557.00;;;;5080270;28;20464;-76
2022/03/16 09:18:19;;;;;;;25.17;20.50;;;9.00;1.00;9.40;101542.00;;;;5078447;28;20674;-77
2022/03/16 09:20:51;;;;;;;22.97;18.60;;;9.10;1.00;9.80;101535.00;;;;5070976;28;20497;-76
2022/03/16 09:23:19;;;;;;;28.83;18.73;;;9.50;1.00;10.00;101534.00;;;;5081451;28;20469;-77
2022/03/16 09:25:49;;;;;;;22.90;18.63;;;9.70;1.00;10.30;101541.00;;;;5081305;28;20484;-77
2022/03/16 09:28:18;;;;;;;22.33;18.53;;;10.00;1.00;10.60;101539.00;;;;5080904;28;20478;-77
2022/03/16 09:30:47;;;;;;;17.90;15.70;;;10.30;1.00;10.60;101530.00;;;;5081697;28;20446;-77
2022/03/16 09:33:15;;;;;;;26.53;18.43;;;10.50;1.00;10.90;101530.00;;;;5082524;28;20461;-77
2022/03/16 09:35:44;;;;;;;18.70;16.30;;;10.70;1.00;11.00;101529.00;;;;5078624;28;20473;-77
2022/03/16 09:38:13;;;;;;;21.63;18.87;;;10.80;1.00;11.10;101514.00;;;;5078527;28;20543;-77
2022/03/16 09:40:42;;;;;;;19.27;16.97;;;10.90;1.00;10.90;101513.00;;;;5079443;28;21091;-77
2022/03/16 09:43:18;;;;;;;20.17;16.80;;;10.80;1.00;10.70;101509.00;;;;5082130;28;20450;-77
2022/03/16 09:45:55;;;;;;;18.30;15.73;;;10.90;1.00;10.70;101520.00;;;;5079542;28;20470;-76
2022/03/16 09:48:24;;;;;;;17.87;15.80;;;10.60;1.00;10.60;101514.00;;;;5080633;28;21351;-76
2022/03/16 09:50:54;;;;;;;18.87;16.03;;;10.60;1.00;10.70;101507.00;;;;5082309;28;20549;-77
2022/03/16 09:53:23;;;;;;;18.33;16.13;;;10.50;1.00;10.60;101516.00;;;;5078302;28;21000;-77
2022/03/16 09:55:52;;;;;;;20.13;16.57;;;10.40;1.00;10.70;101509.00;;;;5079264;28;20562;-78
2022/03/16 09:58:23;;;;;;;36.60;19.23;;;10.50;1.00;10.80;101491.00;;;;5081061;28;20478;-76
2022/03/16 10:00:53;;;;;;;17.37;15.50;;;10.60;1.00;10.70;101492.00;;;;5082286;28;20469;-76
2022/03/16 10:03:25;;;;;;;29.73;18.10;;;10.60;1.00;10.50;101484.00;;;;5083501;28;20450;-76
2022/03/16 10:05:55;;;;;;;21.27;18.97;;;10.40;1.00;10.40;101490.00;;;;5081924;28;20462;-77
2022/03/16 10:08:28;;;;;;;21.20;19.00;;;10.40;1.00;10.30;101492.00;;;;5103985;28;20509;-78
2022/03/16 10:14:11;;;;;;;22.90;18.03;;;10.10;1.00;10.30;101489.00;;;;5112182;28;20466;-78
2022/03/16 10:19:50;;;;;;;22.80;18.37;;;9.90;1.00;10.00;101481.00;;;;5087587;28;20454;-77
2022/03/16 10:22:26;;;;;;;18.13;15.70;;;9.80;1.00;9.80;101452.00;;;;5083028;28;20455;-77
2022/03/16 10:25:03;;;;;;;21.00;17.20;;;9.60;1.00;9.90;101480.00;;;;5077604;28;20465;-77
2022/03/16 10:27:36;;;;;;;21.93;18.60;;;9.70;1.00;9.90;101478.00;;;;5079745;28;20481;-77
2022/03/16 10:30:09;;;;;;;18.37;16.47;;;9.60;1.00;10.00;101465.00;;;;5082010;28;20453;-76
2022/03/16 10:32:41;;;;;;;18.60;16.60;;;9.70;1.00;10.10;101458.00;;;;5081280;28;20515;-76
2022/03/16 10:35:10;;;;;;;22.40;18.60;;;9.80;1.00;10.20;101469.00;;;;5080133;28;20462;-76
2022/03/16 10:37:38;;;;;;;19.97;17.97;;;10.00;1.00;10.30;101470.00;;;;5069163;28;20474;-77
2022/03/16 10:40:17;;;;;;;20.07;17.97;;;9.90;1.00;10.40;101474.00;;;;5082100;28;20796;-76
2022/03/16 10:48:27;;;;;;;20.27;18.13;;;10.10;1.00;10.30;101457.00;;;;5079475;28;20489;-78
2022/03/16 10:50:58;;;;;;;18.83;16.93;;;10.20;1.00;10.40;101470.00;;;;5079178;28;20454;-77
2022/03/16 10:53:29;;;;;;;21.83;17.60;;;10.10;1.00;10.50;101468.00;;;;5078031;28;21409;-77
2022/03/16 10:56:01;;;;;;;18.63;16.23;;;10.20;1.00;10.70;101474.00;;;;5072850;28;20460;-76
2022/03/16 10:58:30;;;;;;;19.67;17.70;;;10.30;1.00;10.60;101450.00;;;;5078344;28;21299;-76
2022/03/16 11:01:00;;;;;;;18.80;16.43;;;10.40;1.00;10.80;101448.00;;;;5081161;28;20438;-76
2022/03/16 11:03:32;;;;;;;19.67;17.67;;;10.60;1.00;10.90;101451.00;;;;5080890;28;20446;-77
2022/03/16 11:06:01;;;;;;;22.70;17.23;;;10.70;1.00;11.10;101449.00;;;;5080325;28;20467;-78
2022/03/16 11:08:32;;;;;;;25.50;17.73;;;10.80;1.00;11.30;101449.00;;;;5079798;28;20472;-77
2022/03/16 11:13:27;;;;;;;24.27;18.67;;;11.00;1.00;11.40;101448.00;;;;5081315;28;20458;-76